sensor_id;sensor_type;location;lat;lon;timestamp;P1;durP1;ratioP1;P2;durP2;ratioP2
18933;SDS011;9599;53.706;10.384;2022-09-01T00:02:30;1.80;;;1.60;;
18933;SDS011;9599;53.706;10.384;2022-09-01T00:04:59;2.57;;;1.97;;
18933;SDS011;9599;53.706;10.384;2022-09-01T00:07:30;2.33;;;1.87;;
18933;SDS011;9599;53.706;10.384;2022-09-01T00:10:02;1.80;;;1.70;;
18933;SDS011;9599;53.706;10.384;2022-09-01T00:12:32;2.00;;;1.80;;
18933;SDS011;9599;53.706;10.384;2022-09-01T00:15:00;2.67;;;2.07;;
18933;SDS011;9599;53.706;10.384;2022-09-01T00:17:28;2.10;;;2.00;;
18933;SDS011;9599;53.706;10.384;2022-09-01T00:19:56;2.67;;;2.03;;
18933;SDS011;9599;53.706;10.384;2022-09-01T00:22:24;2.13;;;1.93;;
18933;SDS011;9599;53.706;10.384;2022-09-01T00:24:52;1.83;;;1.67;;
18933;SDS011;9599;53.706;10.384;2022-09-01T00:27:22;2.20;;;2.00;;
18933;SDS011;9599;53.706;10.384;2022-09-01T00:29:56;2.40;;;1.93;;
18933;SDS011;9599;53.706;10.384;2022-09-01T00:32:24;2.67;;;1.93;;
18933;SDS011;9599;53.706;10.384;2022-09-01T00:34:52;2.77;;;2.10;;
18933;SDS011;9599;53.706;10.384;2022-09-01T00:37:20;2.83;;;2.00;;
18933;SDS011;9599;53.706;10.384;2022-09-01T00:39:48;2.40;;;1.80;;
18933;SDS011;9599;53.706;10.384;2022-09-01T00:42:16;2.30;;;1.90;;
18933;SDS011;9599;53.706;10.384;2022-09-01T00:44:46;3.67;;;2.03;;
18933;SDS011;9599;53.706;10.384;2022-09-01T00:47:14;1.80;;;1.70;;
18933;SDS011;9599;53.706;10.384;2022-09-01T00:49:44;2.23;;;2.03;;
18933;SDS011;9599;53.706;10.384;2022-09-01T00:52:15;2.30;;;2.10;;
18933;SDS011;9599;53.706;10.384;2022-09-01T00:54:48;2.20;;;2.00;;
18933;SDS011;9599;53.706;10.384;2022-09-01T00:57:19;2.90;;;2.00;;
18933;SDS011;9599;53.706;10.384;2022-09-01T00:59:50;2.77;;;2.50;;
18933;SDS011;9599;53.706;10.384;2022-09-01T01:02:22;3.57;;;2.50;;
18933;SDS011;9599;53.706;10.384;2022-09-01T01:04:51;2.70;;;2.47;;
18933;SDS011;9599;53.706;10.384;2022-09-01T01:07:21;2.70;;;2.50;;
18933;SDS011;9599;53.706;10.384;2022-09-01T01:09:49;2.60;;;2.40;;
18933;SDS011;9599;53.706;10.384;2022-09-01T01:12:18;3.43;;;2.40;;
18933;SDS011;9599;53.706;10.384;2022-09-01T01:14:47;3.03;;;2.40;;
18933;SDS011;9599;53.706;10.384;2022-09-01T01:17:18;5.77;;;2.70;;
18933;SDS011;9599;53.706;10.384;2022-09-01T01:19:49;2.40;;;2.20;;
18933;SDS011;9599;53.706;10.384;2022-09-01T01:22:40;2.90;;;1.80;;
18933;SDS011;9599;53.706;10.384;2022-09-01T01:25:36;2.30;;;2.10;;
18933;SDS011;9599;53.706;10.384;2022-09-01T01:28:07;2.63;;;2.20;;
18933;SDS011;9599;53.706;10.384;2022-09-01T01:30:40;2.50;;;2.30;;
18933;SDS011;9599;53.706;10.384;2022-09-01T01:33:10;2.50;;;2.30;;
18933;SDS011;9599;53.706;10.384;2022-09-01T01:35:38;2.80;;;2.20;;
18933;SDS011;9599;53.706;10.384;2022-09-01T01:38:07;2.20;;;2.10;;
18933;SDS011;9599;53.706;10.384;2022-09-01T01:40:38;2.37;;;2.17;;
18933;SDS011;9599;53.706;10.384;2022-09-01T01:43:07;2.63;;;2.43;;
18933;SDS011;9599;53.706;10.384;2022-09-01T01:45:37;2.63;;;2.43;;
18933;SDS011;9599;53.706;10.384;2022-09-01T01:48:05;4.30;;;2.83;;
18933;SDS011;9599;53.706;10.384;2022-09-01T01:50:34;2.93;;;2.63;;
18933;SDS011;9599;53.706;10.384;2022-09-01T01:53:04;2.93;;;2.57;;
18933;SDS011;9599;53.706;10.384;2022-09-01T01:55:39;2.60;;;2.40;;
18933;SDS011;9599;53.706;10.384;2022-09-01T01:58:09;4.67;;;2.50;;
18933;SDS011;9599;53.706;10.384;2022-09-01T02:00:40;2.50;;;2.30;;
18933;SDS011;9599;53.706;10.384;2022-09-01T02:03:12;3.00;;;2.50;;
18933;SDS011;9599;53.706;10.384;2022-09-01T02:05:44;4.20;;;2.90;;
18933;SDS011;9599;53.706;10.384;2022-09-01T02:08:14;3.93;;;2.53;;
18933;SDS011;9599;53.706;10.384;2022-09-01T02:10:48;2.50;;;2.30;;
18933;SDS011;9599;53.706;10.384;2022-09-01T02:13:20;3.40;;;2.73;;
18933;SDS011;9599;53.706;10.384;2022-09-01T02:15:52;2.97;;;2.70;;
18933;SDS011;9599;53.706;10.384;2022-09-01T02:18:22;2.70;;;2.47;;
18933;SDS011;9599;53.706;10.384;2022-09-01T02:20:56;2.70;;;2.43;;
18933;SDS011;9599;53.706;10.384;2022-09-01T02:23:24;2.40;;;2.20;;
18933;SDS011;9599;53.706;10.384;2022-09-01T02:25:54;2.73;;;2.43;;
18933;SDS011;9599;53.706;10.384;2022-09-01T02:28:42;2.50;;;2.30;;
18933;SDS011;9599;53.706;10.384;2022-09-01T02:31:24;2.50;;;2.30;;
18933;SDS011;9599;53.706;10.384;2022-09-01T02:33:53;2.40;;;2.20;;
18933;SDS011;9599;53.706;10.384;2022-09-01T02:36:22;2.53;;;2.33;;
18933;SDS011;9599;53.706;10.384;2022-09-01T02:38:52;2.33;;;2.13;;
18933;SDS011;9599;53.706;10.384;2022-09-01T02:41:24;2.30;;;2.10;;
18933;SDS011;9599;53.706;10.384;2022-09-01T02:43:55;2.80;;;2.20;;
18933;SDS011;9599;53.706;10.384;2022-09-01T02:46:27;2.60;;;2.40;;
18933;SDS011;9599;53.706;10.384;2022-09-01T02:48:56;3.43;;;2.27;;
18933;SDS011;9599;53.706;10.384;2022-09-01T02:51:26;2.60;;;2.40;;
18933;SDS011;9599;53.706;10.384;2022-09-01T02:53:53;2.53;;;2.33;;
18933;SDS011;9599;53.706;10.384;2022-09-01T02:56:23;2.57;;;2.37;;
18933;SDS011;9599;53.706;10.384;2022-09-01T02:58:53;2.73;;;2.30;;
18933;SDS011;9599;53.706;10.384;2022-09-01T03:01:24;3.37;;;2.37;;
18933;SDS011;9599;53.706;10.384;2022-09-01T03:03:56;2.50;;;2.30;;
18933;SDS011;9599;53.706;10.384;2022-09-01T03:06:26;4.47;;;2.67;;
18933;SDS011;9599;53.706;10.384;2022-09-01T03:08:56;3.47;;;2.80;;
18933;SDS011;9599;53.706;10.384;2022-09-01T03:11:27;3.17;;;2.87;;
18933;SDS011;9599;53.706;10.384;2022-09-01T03:13:57;2.67;;;2.47;;
18933;SDS011;9599;53.706;10.384;2022-09-01T03:16:27;2.60;;;2.40;;
18933;SDS011;9599;53.706;10.384;2022-09-01T03:18:57;2.70;;;2.50;;
18933;SDS011;9599;53.706;10.384;2022-09-01T03:21:25;2.77;;;2.57;;
18933;SDS011;9599;53.706;10.384;2022-09-01T03:23:54;2.97;;;2.67;;
18933;SDS011;9599;53.706;10.384;2022-09-01T03:26:24;3.10;;;2.80;;
18933;SDS011;9599;53.706;10.384;2022-09-01T03:28:55;4.97;;;2.90;;
18933;SDS011;9599;53.706;10.384;2022-09-01T03:31:24;3.83;;;3.00;;
18933;SDS011;9599;53.706;10.384;2022-09-01T03:33:59;3.70;;;2.97;;
18933;SDS011;9599;53.706;10.384;2022-09-01T03:36:32;3.27;;;3.03;;
18933;SDS011;9599;53.706;10.384;2022-09-01T03:39:00;3.30;;;3.00;;
18933;SDS011;9599;53.706;10.384;2022-09-01T03:41:30;2.90;;;2.70;;
18933;SDS011;9599;53.706;10.384;2022-09-01T03:43:59;2.90;;;2.70;;
18933;SDS011;9599;53.706;10.384;2022-09-01T03:46:30;2.70;;;2.50;;
18933;SDS011;9599;53.706;10.384;2022-09-01T03:49:03;3.57;;;3.27;;
18933;SDS011;9599;53.706;10.384;2022-09-01T03:51:35;3.40;;;3.10;;
18933;SDS011;9599;53.706;10.384;2022-09-01T03:54:05;4.13;;;3.00;;
18933;SDS011;9599;53.706;10.384;2022-09-01T03:56:33;3.40;;;3.10;;
18933;SDS011;9599;53.706;10.384;2022-09-01T03:59:11;4.03;;;3.20;;
18933;SDS011;9599;53.706;10.384;2022-09-01T04:01:44;3.77;;;3.40;;
18933;SDS011;9599;53.706;10.384;2022-09-01T04:04:13;4.47;;;3.17;;
18933;SDS011;9599;53.706;10.384;2022-09-01T04:06:42;3.70;;;3.27;;
18933;SDS011;9599;53.706;10.384;2022-09-01T04:09:12;3.97;;;3.17;;
18933;SDS011;9599;53.706;10.384;2022-09-01T04:11:42;3.00;;;2.70;;
18933;SDS011;9599;53.706;10.384;2022-09-01T04:14:15;3.00;;;2.70;;
18933;SDS011;9599;53.706;10.384;2022-09-01T04:16:45;2.60;;;2.40;;
18933;SDS011;9599;53.706;10.384;2022-09-01T04:19:32;3.73;;;3.27;;
18933;SDS011;9599;53.706;10.384;2022-09-01T04:22:02;4.17;;;3.20;;
18933;SDS011;9599;53.706;10.384;2022-09-01T04:24:37;3.50;;;2.97;;
18933;SDS011;9599;53.706;10.384;2022-09-01T04:27:10;5.53;;;3.47;;
18933;SDS011;9599;53.706;10.384;2022-09-01T04:29:40;4.73;;;3.73;;
18933;SDS011;9599;53.706;10.384;2022-09-01T04:32:09;4.67;;;3.57;;
18933;SDS011;9599;53.706;10.384;2022-09-01T04:34:40;5.63;;;3.40;;
18933;SDS011;9599;53.706;10.384;2022-09-01T04:37:12;6.03;;;3.77;;
18933;SDS011;9599;53.706;10.384;2022-09-01T04:39:47;6.10;;;3.20;;
18933;SDS011;9599;53.706;10.384;2022-09-01T04:42:23;5.30;;;3.33;;
18933;SDS011;9599;53.706;10.384;2022-09-01T04:44:54;3.83;;;2.97;;
18933;SDS011;9599;53.706;10.384;2022-09-01T04:47:28;6.23;;;3.40;;
18933;SDS011;9599;53.706;10.384;2022-09-01T04:50:03;3.67;;;3.03;;
18933;SDS011;9599;53.706;10.384;2022-09-01T04:52:45;3.80;;;3.50;;
18933;SDS011;9599;53.706;10.384;2022-09-01T04:55:29;3.70;;;3.40;;
18933;SDS011;9599;53.706;10.384;2022-09-01T04:57:58;6.13;;;3.40;;
18933;SDS011;9599;53.706;10.384;2022-09-01T05:00:37;4.90;;;3.40;;
18933;SDS011;9599;53.706;10.384;2022-09-01T05:03:06;4.17;;;3.23;;
18933;SDS011;9599;53.706;10.384;2022-09-01T05:05:54;4.73;;;3.40;;
18933;SDS011;9599;53.706;10.384;2022-09-01T05:08:26;3.80;;;3.37;;
18933;SDS011;9599;53.706;10.384;2022-09-01T05:10:59;5.53;;;3.43;;
18933;SDS011;9599;53.706;10.384;2022-09-01T05:13:39;4.87;;;3.17;;
18933;SDS011;9599;53.706;10.384;2022-09-01T05:16:11;3.67;;;3.33;;
18933;SDS011;9599;53.706;10.384;2022-09-01T05:18:45;4.77;;;3.67;;
18933;SDS011;9599;53.706;10.384;2022-09-01T05:21:15;4.47;;;3.23;;
18933;SDS011;9599;53.706;10.384;2022-09-01T05:23:48;4.00;;;3.60;;
18933;SDS011;9599;53.706;10.384;2022-09-01T05:26:18;4.17;;;3.67;;
18933;SDS011;9599;53.706;10.384;2022-09-01T05:28:49;4.47;;;3.70;;
18933;SDS011;9599;53.706;10.384;2022-09-01T05:31:20;4.43;;;3.80;;
18933;SDS011;9599;53.706;10.384;2022-09-01T05:33:49;4.50;;;4.10;;
18933;SDS011;9599;53.706;10.384;2022-09-01T05:36:20;4.80;;;3.93;;
18933;SDS011;9599;53.706;10.384;2022-09-01T05:38:51;5.47;;;4.20;;
18933;SDS011;9599;53.706;10.384;2022-09-01T05:41:20;5.57;;;4.53;;
18933;SDS011;9599;53.706;10.384;2022-09-01T05:43:49;5.97;;;4.50;;
18933;SDS011;9599;53.706;10.384;2022-09-01T05:46:27;6.63;;;4.20;;
18933;SDS011;9599;53.706;10.384;2022-09-01T05:48:57;5.03;;;4.53;;
18933;SDS011;9599;53.706;10.384;2022-09-01T05:51:25;5.27;;;4.33;;
18933;SDS011;9599;53.706;10.384;2022-09-01T05:54:12;6.20;;;4.73;;
18933;SDS011;9599;53.706;10.384;2022-09-01T05:56:42;5.93;;;4.70;;
18933;SDS011;9599;53.706;10.384;2022-09-01T05:59:20;6.33;;;4.40;;
18933;SDS011;9599;53.706;10.384;2022-09-01T06:01:55;4.83;;;4.20;;
18933;SDS011;9599;53.706;10.384;2022-09-01T06:04:24;7.10;;;4.37;;
18933;SDS011;9599;53.706;10.384;2022-09-01T06:06:59;4.53;;;4.10;;
18933;SDS011;9599;53.706;10.384;2022-09-01T06:09:39;4.53;;;4.13;;
18933;SDS011;9599;53.706;10.384;2022-09-01T06:12:09;5.20;;;4.60;;
18933;SDS011;9599;53.706;10.384;2022-09-01T06:14:44;6.60;;;4.50;;
18933;SDS011;9599;53.706;10.384;2022-09-01T06:17:15;6.53;;;4.60;;
18933;SDS011;9599;53.706;10.384;2022-09-01T06:19:47;5.07;;;4.00;;
18933;SDS011;9599;53.706;10.384;2022-09-01T06:22:16;4.97;;;4.10;;
18933;SDS011;9599;53.706;10.384;2022-09-01T06:24:46;5.23;;;3.90;;
18933;SDS011;9599;53.706;10.384;2022-09-01T06:27:27;4.53;;;3.80;;
18933;SDS011;9599;53.706;10.384;2022-09-01T06:29:55;3.00;;;2.70;;
18933;SDS011;9599;53.706;10.384;2022-09-01T06:32:25;2.20;;;2.00;;
18933;SDS011;9599;53.706;10.384;2022-09-01T06:34:54;3.37;;;2.37;;
18933;SDS011;9599;53.706;10.384;2022-09-01T06:37:23;3.13;;;2.20;;
18933;SDS011;9599;53.706;10.384;2022-09-01T06:39:55;1.93;;;1.83;;
18933;SDS011;9599;53.706;10.384;2022-09-01T06:42:25;2.57;;;1.90;;
18933;SDS011;9599;53.706;10.384;2022-09-01T06:44:57;2.00;;;1.67;;
18933;SDS011;9599;53.706;10.384;2022-09-01T06:47:27;2.50;;;1.70;;
18933;SDS011;9599;53.706;10.384;2022-09-01T06:49:56;3.07;;;1.73;;
18933;SDS011;9599;53.706;10.384;2022-09-01T06:52:27;3.87;;;1.70;;
18933;SDS011;9599;53.706;10.384;2022-09-01T06:55:15;2.30;;;1.60;;
18933;SDS011;9599;53.706;10.384;2022-09-01T06:57:44;1.50;;;1.40;;
18933;SDS011;9599;53.706;10.384;2022-09-01T07:00:35;3.43;;;1.40;;
18933;SDS011;9599;53.706;10.384;2022-09-01T07:03:12;3.40;;;1.50;;
18933;SDS011;9599;53.706;10.384;2022-09-01T07:06:20;2.67;;;1.43;;
18933;SDS011;9599;53.706;10.384;2022-09-01T07:09:27;1.53;;;1.20;;
18933;SDS011;9599;53.706;10.384;2022-09-01T07:12:23;1.40;;;1.20;;
18933;SDS011;9599;53.706;10.384;2022-09-01T07:14:53;2.27;;;1.10;;
18933;SDS011;9599;53.706;10.384;2022-09-01T07:17:47;1.50;;;1.10;;
18933;SDS011;9599;53.706;10.384;2022-09-01T07:20:21;1.97;;;1.10;;
18933;SDS011;9599;53.706;10.384;2022-09-01T07:22:52;1.23;;;1.10;;
18933;SDS011;9599;53.706;10.384;2022-09-01T07:25:32;1.93;;;1.00;;
18933;SDS011;9599;53.706;10.384;2022-09-01T07:28:29;1.70;;;1.10;;
18933;SDS011;9599;53.706;10.384;2022-09-01T07:31:06;1.53;;;0.90;;
18933;SDS011;9599;53.706;10.384;2022-09-01T07:33:58;1.77;;;1.20;;
18933;SDS011;9599;53.706;10.384;2022-09-01T07:36:51;1.40;;;0.90;;
18933;SDS011;9599;53.706;10.384;2022-09-01T07:39:45;1.07;;;0.80;;
18933;SDS011;9599;53.706;10.384;2022-09-01T07:42:26;2.70;;;0.80;;
18933;SDS011;9599;53.706;10.384;2022-09-01T07:45:21;1.43;;;1.23;;
18933;SDS011;9599;53.706;10.384;2022-09-01T07:47:56;1.60;;;1.00;;
18933;SDS011;9599;53.706;10.384;2022-09-01T07:50:33;1.63;;;1.00;;
18933;SDS011;9599;53.706;10.384;2022-09-01T07:53:25;2.50;;;0.90;;
18933;SDS011;9599;53.706;10.384;2022-09-01T07:55:58;1.17;;;1.07;;
18933;SDS011;9599;53.706;10.384;2022-09-01T07:58:28;1.50;;;0.90;;
18933;SDS011;9599;53.706;10.384;2022-09-01T08:01:04;2.40;;;0.83;;
18933;SDS011;9599;53.706;10.384;2022-09-01T08:03:35;1.00;;;0.80;;
18933;SDS011;9599;53.706;10.384;2022-09-01T08:06:06;0.80;;;0.80;;
18933;SDS011;9599;53.706;10.384;2022-09-01T08:08:38;0.80;;;0.80;;
18933;SDS011;9599;53.706;10.384;2022-09-01T08:11:07;1.37;;;0.90;;
18933;SDS011;9599;53.706;10.384;2022-09-01T08:13:36;0.80;;;0.80;;
18933;SDS011;9599;53.706;10.384;2022-09-01T08:16:08;1.33;;;0.83;;
18933;SDS011;9599;53.706;10.384;2022-09-01T08:18:46;2.73;;;0.83;;
18933;SDS011;9599;53.706;10.384;2022-09-01T08:21:27;1.77;;;0.77;;
18933;SDS011;9599;53.706;10.384;2022-09-01T08:24:02;1.90;;;0.90;;
18933;SDS011;9599;53.706;10.384;2022-09-01T08:26:32;1.93;;;0.90;;
18933;SDS011;9599;53.706;10.384;2022-09-01T08:29:02;1.30;;;0.90;;
18933;SDS011;9599;53.706;10.384;2022-09-01T08:31:37;0.80;;;0.80;;
18933;SDS011;9599;53.706;10.384;2022-09-01T08:34:06;2.13;;;0.90;;
18933;SDS011;9599;53.706;10.384;2022-09-01T08:36:36;2.03;;;0.90;;
18933;SDS011;9599;53.706;10.384;2022-09-01T08:39:06;1.73;;;0.70;;
18933;SDS011;9599;53.706;10.384;2022-09-01T08:41:38;1.20;;;1.00;;
18933;SDS011;9599;53.706;10.384;2022-09-01T08:44:18;1.30;;;0.80;;
18933;SDS011;9599;53.706;10.384;2022-09-01T08:46:57;1.13;;;0.83;;
18933;SDS011;9599;53.706;10.384;2022-09-01T08:49:29;1.73;;;0.80;;
18933;SDS011;9599;53.706;10.384;2022-09-01T08:52:32;1.83;;;0.70;;
18933;SDS011;9599;53.706;10.384;2022-09-01T08:55:06;1.53;;;1.00;;
18933;SDS011;9599;53.706;10.384;2022-09-01T08:57:42;1.13;;;0.90;;
18933;SDS011;9599;53.706;10.384;2022-09-01T09:00:17;1.80;;;0.80;;
18933;SDS011;9599;53.706;10.384;2022-09-01T09:02:55;2.00;;;0.93;;
18933;SDS011;9599;53.706;10.384;2022-09-01T09:05:42;1.23;;;0.90;;
18933;SDS011;9599;53.706;10.384;2022-09-01T09:08:30;1.37;;;0.80;;
18933;SDS011;9599;53.706;10.384;2022-09-01T09:11:24;1.27;;;0.80;;
18933;SDS011;9599;53.706;10.384;2022-09-01T09:14:09;1.87;;;0.90;;
18933;SDS011;9599;53.706;10.384;2022-09-01T09:16:45;0.83;;;0.80;;
18933;SDS011;9599;53.706;10.384;2022-09-01T09:19:20;1.43;;;1.00;;
18933;SDS011;9599;53.706;10.384;2022-09-01T09:21:51;4.00;;;0.90;;
18933;SDS011;9599;53.706;10.384;2022-09-01T09:24:23;2.13;;;0.97;;
18933;SDS011;9599;53.706;10.384;2022-09-01T09:27:06;1.43;;;0.93;;
18933;SDS011;9599;53.706;10.384;2022-09-01T09:29:36;0.73;;;0.70;;
18933;SDS011;9599;53.706;10.384;2022-09-01T09:32:04;2.20;;;0.90;;
18933;SDS011;9599;53.706;10.384;2022-09-01T09:34:55;1.00;;;0.90;;
18933;SDS011;9599;53.706;10.384;2022-09-01T09:37:25;0.97;;;0.87;;
18933;SDS011;9599;53.706;10.384;2022-09-01T09:40:00;1.23;;;0.80;;
18933;SDS011;9599;53.706;10.384;2022-09-01T09:42:39;1.47;;;0.80;;
18933;SDS011;9599;53.706;10.384;2022-09-01T09:45:15;1.10;;;1.00;;
18933;SDS011;9599;53.706;10.384;2022-09-01T09:47:50;1.67;;;0.90;;
18933;SDS011;9599;53.706;10.384;2022-09-01T09:50:20;2.17;;;0.83;;
18933;SDS011;9599;53.706;10.384;2022-09-01T09:52:52;1.70;;;0.80;;
18933;SDS011;9599;53.706;10.384;2022-09-01T09:55:37;2.67;;;0.90;;
18933;SDS011;9599;53.706;10.384;2022-09-01T09:58:23;1.30;;;0.80;;
18933;SDS011;9599;53.706;10.384;2022-09-01T10:00:57;2.40;;;0.80;;
18933;SDS011;9599;53.706;10.384;2022-09-01T10:03:34;2.57;;;0.93;;
18933;SDS011;9599;53.706;10.384;2022-09-01T10:06:08;1.77;;;0.87;;
18933;SDS011;9599;53.706;10.384;2022-09-01T10:08:39;2.20;;;0.90;;
18933;SDS011;9599;53.706;10.384;2022-09-01T10:11:12;3.10;;;0.90;;
18933;SDS011;9599;53.706;10.384;2022-09-01T10:14:02;2.40;;;0.90;;
18933;SDS011;9599;53.706;10.384;2022-09-01T10:16:33;1.10;;;0.97;;
18933;SDS011;9599;53.706;10.384;2022-09-01T10:19:06;0.90;;;0.90;;
18933;SDS011;9599;53.706;10.384;2022-09-01T10:21:42;2.73;;;1.20;;
18933;SDS011;9599;53.706;10.384;2022-09-01T10:24:15;1.80;;;1.10;;
18933;SDS011;9599;53.706;10.384;2022-09-01T10:26:56;2.00;;;0.90;;
18933;SDS011;9599;53.706;10.384;2022-09-01T10:29:30;1.80;;;0.80;;
18933;SDS011;9599;53.706;10.384;2022-09-01T10:32:14;1.70;;;0.90;;
18933;SDS011;9599;53.706;10.384;2022-09-01T10:35:02;1.13;;;1.03;;
18933;SDS011;9599;53.706;10.384;2022-09-01T10:37:31;1.27;;;0.90;;
18933;SDS011;9599;53.706;10.384;2022-09-01T10:43:22;1.00;;;0.90;;
18933;SDS011;9599;53.706;10.384;2022-09-01T10:52:58;0.83;;;0.80;;
18933;SDS011;9599;53.706;10.384;2022-09-01T10:55:28;1.10;;;0.80;;
18933;SDS011;9599;53.706;10.384;2022-09-01T10:58:06;1.17;;;0.90;;
18933;SDS011;9599;53.706;10.384;2022-09-01T11:01:11;1.10;;;0.90;;
18933;SDS011;9599;53.706;10.384;2022-09-01T11:03:59;3.63;;;0.70;;
18933;SDS011;9599;53.706;10.384;2022-09-01T11:10:05;0.80;;;0.80;;
18933;SDS011;9599;53.706;10.384;2022-09-01T11:19:34;2.33;;;1.10;;
18933;SDS011;9599;53.706;10.384;2022-09-01T11:22:13;2.40;;;1.10;;
18933;SDS011;9599;53.706;10.384;2022-09-01T11:28:34;0.90;;;0.90;;
18933;SDS011;9599;53.706;10.384;2022-09-01T11:34:10;0.80;;;0.80;;
18933;SDS011;9599;53.706;10.384;2022-09-01T11:36:50;1.20;;;1.00;;
18933;SDS011;9599;53.706;10.384;2022-09-01T11:39:30;1.00;;;0.90;;
18933;SDS011;9599;53.706;10.384;2022-09-01T11:42:06;0.90;;;0.90;;
18933;SDS011;9599;53.706;10.384;2022-09-01T11:44:40;1.67;;;0.90;;
18933;SDS011;9599;53.706;10.384;2022-09-01T11:47:13;1.00;;;0.90;;
18933;SDS011;9599;53.706;10.384;2022-09-01T11:49:48;0.93;;;0.90;;
18933;SDS011;9599;53.706;10.384;2022-09-01T11:52:20;1.73;;;0.90;;
18933;SDS011;9599;53.706;10.384;2022-09-01T11:54:50;0.90;;;0.90;;
18933;SDS011;9599;53.706;10.384;2022-09-01T11:57:28;1.70;;;1.00;;
18933;SDS011;9599;53.706;10.384;2022-09-01T11:59:59;1.27;;;0.80;;
18933;SDS011;9599;53.706;10.384;2022-09-01T12:02:40;1.00;;;0.90;;
18933;SDS011;9599;53.706;10.384;2022-09-01T12:05:22;1.10;;;0.90;;
18933;SDS011;9599;53.706;10.384;2022-09-01T12:07:53;1.53;;;0.87;;
18933;SDS011;9599;53.706;10.384;2022-09-01T12:10:23;1.83;;;1.10;;
18933;SDS011;9599;53.706;10.384;2022-09-01T12:13:02;1.43;;;0.93;;
18933;SDS011;9599;53.706;10.384;2022-09-01T12:15:32;0.90;;;0.90;;
18933;SDS011;9599;53.706;10.384;2022-09-01T12:18:20;1.63;;;1.00;;
18933;SDS011;9599;53.706;10.384;2022-09-01T12:20:52;0.90;;;0.90;;
18933;SDS011;9599;53.706;10.384;2022-09-01T12:23:24;1.23;;;0.80;;
18933;SDS011;9599;53.706;10.384;2022-09-01T12:25:55;1.00;;;0.90;;
18933;SDS011;9599;53.706;10.384;2022-09-01T12:28:27;2.70;;;1.00;;
18933;SDS011;9599;53.706;10.384;2022-09-01T12:30:58;2.20;;;0.87;;
18933;SDS011;9599;53.706;10.384;2022-09-01T12:33:32;2.80;;;1.07;;
18933;SDS011;9599;53.706;10.384;2022-09-01T12:36:18;2.10;;;0.90;;
18933;SDS011;9599;53.706;10.384;2022-09-01T12:38:48;1.60;;;0.90;;
18933;SDS011;9599;53.706;10.384;2022-09-01T12:41:24;1.27;;;0.90;;
18933;SDS011;9599;53.706;10.384;2022-09-01T12:46:56;1.33;;;0.80;;
18933;SDS011;9599;53.706;10.384;2022-09-01T12:49:32;2.23;;;0.90;;
18933;SDS011;9599;53.706;10.384;2022-09-01T12:52:17;3.53;;;0.90;;
18933;SDS011;9599;53.706;10.384;2022-09-01T12:54:52;1.57;;;1.00;;
18933;SDS011;9599;53.706;10.384;2022-09-01T12:57:33;2.20;;;0.90;;
18933;SDS011;9599;53.706;10.384;2022-09-01T13:00:08;4.67;;;1.10;;
18933;SDS011;9599;53.706;10.384;2022-09-01T13:02:43;1.83;;;0.80;;
18933;SDS011;9599;53.706;10.384;2022-09-01T13:05:20;2.20;;;0.80;;
18933;SDS011;9599;53.706;10.384;2022-09-01T13:07:58;1.93;;;0.90;;
18933;SDS011;9599;53.706;10.384;2022-09-01T13:10:30;1.93;;;0.80;;
18933;SDS011;9599;53.706;10.384;2022-09-01T13:13:02;1.13;;;0.67;;
18933;SDS011;9599;53.706;10.384;2022-09-01T13:15:33;0.80;;;0.80;;
18933;SDS011;9599;53.706;10.384;2022-09-01T13:18:02;0.70;;;0.70;;
18933;SDS011;9599;53.706;10.384;2022-09-01T13:20:31;0.83;;;0.80;;
18933;SDS011;9599;53.706;10.384;2022-09-01T13:22:59;1.67;;;0.70;;
18933;SDS011;9599;53.706;10.384;2022-09-01T13:25:27;1.97;;;1.00;;
18933;SDS011;9599;53.706;10.384;2022-09-01T13:27:56;2.60;;;0.90;;
18933;SDS011;9599;53.706;10.384;2022-09-01T13:30:27;1.53;;;0.87;;
18933;SDS011;9599;53.706;10.384;2022-09-01T13:32:58;2.00;;;0.90;;
18933;SDS011;9599;53.706;10.384;2022-09-01T13:35:46;1.33;;;0.80;;
18933;SDS011;9599;53.706;10.384;2022-09-01T13:38:15;1.63;;;1.00;;
18933;SDS011;9599;53.706;10.384;2022-09-01T13:40:43;0.80;;;0.80;;
18933;SDS011;9599;53.706;10.384;2022-09-01T13:43:13;2.40;;;1.00;;
18933;SDS011;9599;53.706;10.384;2022-09-01T13:45:42;1.33;;;0.90;;
18933;SDS011;9599;53.706;10.384;2022-09-01T13:48:12;0.90;;;0.90;;
18933;SDS011;9599;53.706;10.384;2022-09-01T13:50:42;1.73;;;1.00;;
18933;SDS011;9599;53.706;10.384;2022-09-01T13:53:31;2.90;;;1.00;;
18933;SDS011;9599;53.706;10.384;2022-09-01T13:56:00;2.00;;;0.90;;
18933;SDS011;9599;53.706;10.384;2022-09-01T13:58:28;1.07;;;0.90;;
18933;SDS011;9599;53.706;10.384;2022-09-01T14:00:56;1.10;;;0.80;;
18933;SDS011;9599;53.706;10.384;2022-09-01T14:03:27;2.17;;;1.00;;
18933;SDS011;9599;53.706;10.384;2022-09-01T14:05:57;2.27;;;0.90;;
18933;SDS011;9599;53.706;10.384;2022-09-01T14:08:25;1.53;;;1.00;;
18933;SDS011;9599;53.706;10.384;2022-09-01T14:10:53;1.00;;;0.90;;
18933;SDS011;9599;53.706;10.384;2022-09-01T14:13:22;1.00;;;0.90;;
18933;SDS011;9599;53.706;10.384;2022-09-01T14:15:52;1.10;;;1.00;;
18933;SDS011;9599;53.706;10.384;2022-09-01T14:18:20;1.10;;;1.00;;
18933;SDS011;9599;53.706;10.384;2022-09-01T14:20:50;1.00;;;0.90;;
18933;SDS011;9599;53.706;10.384;2022-09-01T14:23:20;1.00;;;0.90;;
18933;SDS011;9599;53.706;10.384;2022-09-01T14:25:49;1.50;;;1.00;;
18933;SDS011;9599;53.706;10.384;2022-09-01T14:28:19;2.10;;;1.00;;
18933;SDS011;9599;53.706;10.384;2022-09-01T14:30:49;2.53;;;0.90;;
18933;SDS011;9599;53.706;10.384;2022-09-01T14:33:17;1.17;;;1.03;;
18933;SDS011;9599;53.706;10.384;2022-09-01T14:35:51;0.70;;;0.70;;
18933;SDS011;9599;53.706;10.384;2022-09-01T14:38:19;2.40;;;0.90;;
18933;SDS011;9599;53.706;10.384;2022-09-01T14:40:47;1.07;;;0.97;;
18933;SDS011;9599;53.706;10.384;2022-09-01T14:43:17;0.90;;;0.90;;
18933;SDS011;9599;53.706;10.384;2022-09-01T14:45:46;1.07;;;0.83;;
18933;SDS011;9599;53.706;10.384;2022-09-01T14:48:15;2.70;;;0.90;;
18933;SDS011;9599;53.706;10.384;2022-09-01T14:50:46;1.00;;;0.90;;
18933;SDS011;9599;53.706;10.384;2022-09-01T14:53:17;0.80;;;0.80;;
18933;SDS011;9599;53.706;10.384;2022-09-01T14:55:46;1.20;;;1.10;;
18933;SDS011;9599;53.706;10.384;2022-09-01T14:58:20;1.53;;;1.03;;
18933;SDS011;9599;53.706;10.384;2022-09-01T15:00:48;1.10;;;1.00;;
18933;SDS011;9599;53.706;10.384;2022-09-01T15:03:17;1.03;;;0.90;;
18933;SDS011;9599;53.706;10.384;2022-09-01T15:05:48;1.53;;;0.90;;
18933;SDS011;9599;53.706;10.384;2022-09-01T15:08:18;0.87;;;0.87;;
18933;SDS011;9599;53.706;10.384;2022-09-01T15:10:47;1.03;;;0.90;;
18933;SDS011;9599;53.706;10.384;2022-09-01T15:13:15;1.13;;;0.90;;
18933;SDS011;9599;53.706;10.384;2022-09-01T15:15:43;1.63;;;0.87;;
18933;SDS011;9599;53.706;10.384;2022-09-01T15:18:12;1.43;;;0.90;;
18933;SDS011;9599;53.706;10.384;2022-09-01T15:20:40;2.73;;;0.80;;
18933;SDS011;9599;53.706;10.384;2022-09-01T15:23:12;1.70;;;1.07;;
18933;SDS011;9599;53.706;10.384;2022-09-01T15:25:43;1.83;;;1.00;;
18933;SDS011;9599;53.706;10.384;2022-09-01T15:28:12;3.97;;;0.93;;
18933;SDS011;9599;53.706;10.384;2022-09-01T15:30:40;2.83;;;1.00;;
18933;SDS011;9599;53.706;10.384;2022-09-01T15:33:10;2.20;;;1.00;;
18933;SDS011;9599;53.706;10.384;2022-09-01T15:35:41;1.13;;;0.80;;
18933;SDS011;9599;53.706;10.384;2022-09-01T15:38:10;1.77;;;0.90;;
18933;SDS011;9599;53.706;10.384;2022-09-01T15:40:45;1.60;;;0.80;;
18933;SDS011;9599;53.706;10.384;2022-09-01T15:43:24;0.90;;;0.90;;
18933;SDS011;9599;53.706;10.384;2022-09-01T15:45:53;1.37;;;1.00;;
18933;SDS011;9599;53.706;10.384;2022-09-01T15:48:24;1.47;;;0.87;;
18933;SDS011;9599;53.706;10.384;2022-09-01T15:50:52;1.00;;;0.90;;
18933;SDS011;9599;53.706;10.384;2022-09-01T15:53:20;3.60;;;0.90;;
18933;SDS011;9599;53.706;10.384;2022-09-01T15:55:49;1.90;;;0.93;;
18933;SDS011;9599;53.706;10.384;2022-09-01T15:58:17;1.63;;;1.13;;